createdAt,value
2022-12-08T06:58:52.395Z,1.30
2022-12-08T07:01:20.044Z,1.40
2022-12-08T07:03:47.812Z,1.10
2022-12-08T07:06:16.836Z,1.25
2022-12-08T07:08:44.022Z,1.20
2022-12-08T07:11:15.250Z,1.15
2022-12-08T07:13:43.703Z,1.35
2022-12-08T07:16:12.304Z,1.00
2022-12-08T07:18:39.595Z,2.65
2022-12-08T07:21:08.548Z,1.30
2022-12-08T07:23:38.844Z,1.58
2022-12-08T07:26:18.579Z,1.40
2022-12-08T07:28:46.851Z,1.90
2022-12-08T07:31:21.323Z,1.65
2022-12-08T07:33:48.512Z,2.20
2022-12-08T07:36:15.524Z,1.40
2022-12-08T07:38:43.341Z,1.33
2022-12-08T07:41:17.794Z,1.63
2022-12-08T07:43:45.385Z,2.53
2022-12-08T07:46:13.501Z,1.50
2022-12-08T07:48:40.585Z,1.20
2022-12-08T07:51:08.037Z,1.65
2022-12-08T07:53:35.391Z,2.72
2022-12-08T07:56:09.723Z,1.42
2022-12-08T07:58:36.853Z,2.38
2022-12-08T08:01:04.115Z,1.35
2022-12-08T08:03:31.682Z,2.30
2022-12-08T08:06:05.463Z,4.15
2022-12-08T08:08:32.644Z,2.25
2022-12-08T08:11:00.170Z,2.80
2022-12-08T08:13:27.289Z,1.80
2022-12-08T08:15:54.463Z,4.38
2022-12-08T08:18:22.042Z,2.55
2022-12-08T08:20:50.214Z,2.13
2022-12-08T08:23:18.597Z,3.42
2022-12-08T08:25:45.608Z,3.10
2022-12-08T08:28:12.684Z,4.38
2022-12-08T08:30:39.877Z,2.95
2022-12-08T08:33:07.048Z,3.35
2022-12-08T08:35:34.923Z,2.30
2022-12-08T08:38:02.035Z,4.03
2022-12-08T08:40:29.248Z,4.28
2022-12-08T08:42:58.262Z,2.38
2022-12-08T08:45:25.315Z,4.05
2022-12-08T08:48:06.993Z,4.23
2022-12-08T08:50:52.491Z,3.40
2022-12-08T08:53:41.999Z,3.75
2022-12-08T08:56:12.043Z,4.47
2022-12-08T08:58:41.985Z,4.32
2022-12-08T09:01:16.131Z,4.05
2022-12-08T09:03:43.443Z,4.85
2022-12-08T09:06:13.543Z,3.15
2022-12-08T09:08:53.249Z,5.20
2022-12-08T09:11:29.338Z,2.63
2022-12-08T09:13:56.655Z,4.80
2022-12-08T09:16:27.514Z,7.25
2022-12-08T09:18:54.994Z,7.75
2022-12-08T09:21:28.512Z,9.35
2022-12-08T09:23:56.859Z,6.40
2022-12-08T09:26:30.430Z,7.53
2022-12-08T09:28:57.954Z,4.73
2022-12-08T09:31:37.877Z,5.65
2022-12-08T09:37:28.211Z,6.45
2022-12-08T09:39:57.882Z,5.93
2022-12-08T09:42:36.751Z,6.05
2022-12-08T09:45:13.201Z,7.77
2022-12-08T09:47:59.212Z,6.53
2022-12-08T09:50:26.445Z,4.93
2022-12-08T09:53:12.352Z,7.10
2022-12-08T09:55:49.973Z,9.07
2022-12-08T09:58:37.341Z,6.43
2022-12-08T10:01:07.206Z,8.15
2022-12-08T10:03:37.373Z,7.88
2022-12-08T10:06:12.982Z,5.45
2022-12-08T10:12:31.245Z,6.85
2022-12-08T10:15:15.333Z,9.97
2022-12-08T10:17:52.560Z,6.25
2022-12-08T10:20:27.474Z,7.40
2022-12-08T10:23:17.026Z,9.10
2022-12-08T10:25:51.712Z,6.40
2022-12-08T10:28:18.961Z,11.90
2022-12-08T10:30:45.993Z,8.32
2022-12-08T10:33:20.400Z,10.73
2022-12-08T10:35:49.213Z,12.03
2022-12-08T10:38:21.177Z,9.90
2022-12-08T10:40:49.972Z,10.30
2022-12-08T10:43:22.754Z,8.02
2022-12-08T10:45:50.137Z,9.27
2022-12-08T10:48:36.322Z,7.13
2022-12-08T10:51:07.021Z,8.38
2022-12-08T10:53:34.565Z,5.78
2022-12-08T10:56:04.665Z,13.20
2022-12-08T10:58:36.257Z,6.70
2022-12-08T11:01:06.734Z,7.57
2022-12-08T11:03:37.579Z,6.60
2022-12-08T11:06:13.387Z,10.75
2022-12-08T11:08:51.155Z,14.53
2022-12-08T11:11:18.708Z,9.45
2022-12-08T11:13:45.919Z,9.43
2022-12-08T11:16:15.553Z,17.50
2022-12-08T11:18:47.424Z,9.70
2022-12-08T11:21:16.585Z,9.70
2022-12-08T11:23:47.147Z,11.50
2022-12-08T11:26:35.197Z,14.70
2022-12-08T11:29:02.368Z,16.77
2022-12-08T11:31:39.242Z,20.90
2022-12-08T11:34:07.062Z,22.63
2022-12-08T11:36:36.164Z,22.05
2022-12-08T11:39:04.322Z,15.90
2022-12-08T11:41:35.110Z,27.80
2022-12-08T11:44:06.247Z,24.55
2022-12-08T11:46:37.712Z,25.93
2022-12-08T11:49:07.356Z,30.05
2022-12-08T11:51:44.320Z,27.75
2022-12-08T11:54:14.392Z,28.10
2022-12-08T11:56:43.667Z,34.55
2022-12-08T11:59:10.797Z,36.15
2022-12-08T12:01:42.348Z,24.48
2022-12-08T12:04:20.446Z,27.57
2022-12-08T12:07:19.433Z,25.50
2022-12-08T12:09:55.529Z,25.10
2022-12-08T12:12:25.714Z,281.98
2022-12-08T12:15:14.178Z,381.17
2022-12-08T12:17:47.733Z,143.43
2022-12-08T12:20:23.961Z,90.93
2022-12-08T12:22:54.785Z,86.32
2022-12-08T12:25:23.626Z,70.90
2022-12-08T12:27:58.754Z,59.88
2022-12-08T12:30:29.515Z,51.35
2022-12-08T12:33:01.386Z,58.97
2022-12-08T12:35:32.420Z,64.20
2022-12-08T12:38:38.415Z,52.10
2022-12-08T12:41:06.128Z,49.20
2022-12-08T12:43:34.564Z,48.95
2022-12-08T12:46:25.115Z,44.83
2022-12-08T12:48:52.437Z,49.83
2022-12-08T12:51:38.322Z,46.03
2022-12-08T12:54:22.439Z,53.08
2022-12-08T12:56:51.584Z,48.30
2022-12-08T12:59:37.430Z,46.40
2022-12-08T13:02:04.685Z,42.83
2022-12-08T13:04:37.311Z,53.50
2022-12-08T13:07:05.723Z,44.60
2022-12-08T13:09:35.682Z,40.83
2022-12-08T13:12:10.154Z,40.95
2022-12-08T13:14:38.583Z,50.83
2022-12-08T13:17:08.612Z,53.10
2022-12-08T13:19:36.600Z,41.92
2022-12-08T13:22:03.645Z,51.17
2022-12-08T13:24:32.748Z,43.85
2022-12-08T13:27:05.795Z,44.55
2022-12-08T13:29:33.645Z,46.97
2022-12-08T13:32:04.587Z,49.97
2022-12-08T13:34:41.194Z,50.55
2022-12-08T13:37:21.225Z,57.78
2022-12-08T13:40:00.117Z,112.85
2022-12-08T13:42:31.803Z,203.20
2022-12-08T13:48:44.648Z,99.47
2022-12-08T13:57:08.625Z,79.10
2022-12-08T13:59:43.358Z,59.50
2022-12-08T14:02:18.510Z,69.63
2022-12-08T14:05:16.911Z,71.22
2022-12-08T14:07:37.728Z,65.37
2022-12-08T14:10:10.493Z,54.75
2022-12-08T14:12:40.220Z,61.97
2022-12-08T14:15:09.402Z,74.18
2022-12-08T14:17:36.847Z,63.50
2022-12-08T14:20:20.378Z,67.22
2022-12-08T14:22:50.198Z,54.28
2022-12-08T14:25:17.851Z,63.40
2022-12-08T14:27:45.978Z,55.70
2022-12-08T14:30:16.098Z,46.03
2022-12-08T14:32:57.086Z,50.70
2022-12-08T14:35:26.319Z,43.92
2022-12-08T14:37:58.568Z,44.92
2022-12-08T14:40:31.415Z,38.42
2022-12-08T14:43:10.782Z,46.58
2022-12-08T14:45:43.593Z,39.10
2022-12-08T14:48:19.666Z,34.85
2022-12-08T14:50:55.927Z,32.58
2022-12-08T14:53:23.194Z,41.63
2022-12-08T14:55:50.504Z,36.63
2022-12-08T14:58:19.152Z,25.67
2022-12-08T15:00:48.563Z,36.20
2022-12-08T15:03:17.720Z,34.35
2022-12-08T15:05:44.832Z,26.55
2022-12-08T15:08:14.839Z,34.97
2022-12-08T15:10:48.187Z,25.20
2022-12-08T15:13:16.276Z,26.08
2022-12-08T15:15:48.149Z,26.05
2022-12-08T15:18:17.957Z,30.60
2022-12-08T15:20:47.428Z,23.67
2022-12-08T15:23:20.358Z,27.52
2022-12-08T15:25:47.500Z,24.27
2022-12-08T15:28:15.116Z,23.57
2022-12-08T15:30:42.177Z,19.63
2022-12-08T15:33:09.174Z,22.00
2022-12-08T15:35:40.789Z,21.25
2022-12-08T15:38:11.221Z,22.83
2022-12-08T15:40:44.664Z,26.08
2022-12-08T15:43:12.115Z,18.05
2022-12-08T15:45:46.887Z,22.43
2022-12-08T15:48:23.479Z,16.17
2022-12-08T15:50:50.776Z,17.33
2022-12-08T15:53:18.096Z,18.10
2022-12-08T15:56:03.872Z,17.23
2022-12-08T16:01:19.898Z,18.15
2022-12-08T16:09:24.512Z,15.43
2022-12-08T16:12:10.713Z,16.83
2022-12-08T16:17:26.715Z,14.85
2022-12-08T16:19:54.136Z,16.38
2022-12-08T16:25:18.243Z,13.32
2022-12-08T16:28:23.257Z,16.92
2022-12-08T16:30:34.247Z,14.32
2022-12-08T16:33:01.289Z,16.03
2022-12-08T16:35:28.293Z,12.20
2022-12-08T16:37:55.477Z,10.95
2022-12-08T16:40:22.735Z,12.70
2022-12-08T16:42:50.452Z,13.33
2022-12-08T16:45:23.934Z,15.13
2022-12-08T16:47:52.387Z,13.73
2022-12-08T16:50:19.366Z,13.18
2022-12-08T16:52:46.427Z,11.35
2022-12-08T16:55:14.830Z,10.85
2022-12-08T16:57:43.293Z,11.60
2022-12-08T17:00:14.920Z,10.87
2022-12-08T17:02:42.180Z,13.63
2022-12-08T17:05:09.699Z,10.55
2022-12-08T17:07:36.943Z,12.60
2022-12-08T17:10:06.290Z,11.93
2022-12-08T17:12:37.779Z,14.20
2022-12-08T17:15:06.191Z,9.35
2022-12-08T17:17:35.380Z,12.10
2022-12-08T17:20:04.932Z,11.73
2022-12-08T17:22:32.928Z,11.77
2022-12-08T17:25:00.620Z,11.30
2022-12-08T17:27:28.009Z,8.00
2022-12-08T17:29:55.060Z,10.35
2022-12-08T17:32:22.182Z,13.57
2022-12-08T17:34:49.778Z,8.05
2022-12-08T17:37:17.433Z,10.60
2022-12-08T17:39:44.558Z,9.52
2022-12-08T17:42:11.664Z,11.63
2022-12-08T17:44:39.015Z,8.27
2022-12-08T17:47:06.329Z,6.35
2022-12-08T17:49:33.857Z,12.13
2022-12-08T17:52:02.205Z,7.97
2022-12-08T17:54:29.868Z,8.98
2022-12-08T17:57:00.323Z,8.80
2022-12-08T17:59:29.422Z,8.40
2022-12-08T18:01:57.983Z,10.23
2022-12-08T18:04:25.868Z,8.98
2022-12-08T18:06:52.921Z,5.35
2022-12-08T18:09:20.010Z,10.77
2022-12-08T18:11:47.447Z,7.60
2022-12-08T18:14:14.537Z,8.60
2022-12-08T18:16:43.571Z,8.80
2022-12-08T18:19:11.317Z,8.18
2022-12-08T18:21:38.727Z,6.90
2022-12-08T18:24:06.086Z,8.33
2022-12-08T18:26:33.473Z,6.13
2022-12-08T18:29:00.799Z,6.20
2022-12-08T18:31:28.013Z,5.25
2022-12-08T18:33:55.116Z,6.80
2022-12-08T18:36:23.488Z,7.93
2022-12-08T18:38:50.517Z,6.28
2022-12-08T18:41:19.274Z,9.55
2022-12-08T18:43:46.493Z,6.43
2022-12-08T18:46:14.399Z,5.18
2022-12-08T18:48:42.946Z,8.43
2022-12-08T18:51:13.810Z,6.57
2022-12-08T18:53:41.412Z,9.00
2022-12-08T18:56:09.029Z,6.78
2022-12-08T18:58:36.258Z,7.10
2022-12-08T19:01:03.466Z,5.20
2022-12-08T19:03:30.510Z,7.78
2022-12-08T19:06:04.415Z,6.72
2022-12-08T19:08:31.874Z,6.53
2022-12-08T19:10:59.138Z,4.75
2022-12-08T19:13:27.203Z,7.65
2022-12-08T19:15:54.650Z,6.85
2022-12-08T19:18:21.683Z,5.47
2022-12-08T19:20:48.814Z,7.50
2022-12-08T19:23:16.554Z,5.63
2022-12-08T19:25:43.640Z,5.72
2022-12-08T19:28:10.628Z,5.93
2022-12-08T19:30:37.862Z,5.70
2022-12-08T19:33:04.999Z,6.82
2022-12-08T19:35:32.046Z,7.45
2022-12-08T19:37:59.326Z,5.57
2022-12-08T19:40:45.012Z,6.27
2022-12-08T19:43:38.141Z,5.18
2022-12-08T19:46:05.351Z,5.20
2022-12-08T19:48:32.615Z,4.57
2022-12-08T19:50:59.991Z,8.52
2022-12-08T19:53:27.082Z,5.18
2022-12-08T19:55:54.156Z,5.05
2022-12-08T19:58:21.187Z,3.78
2022-12-08T20:00:48.660Z,5.93
2022-12-08T20:03:19.868Z,6.03
2022-12-08T20:05:48.628Z,4.57
2022-12-08T20:08:16.117Z,5.53
2022-12-08T20:10:44.351Z,5.45
2022-12-08T20:13:30.888Z,4.93
2022-12-08T20:15:58.178Z,6.75
2022-12-08T20:18:25.450Z,4.43
2022-12-08T20:20:52.711Z,5.05
2022-12-08T20:23:19.786Z,5.40
2022-12-08T20:25:47.725Z,4.95
2022-12-08T20:28:14.870Z,6.35
2022-12-08T20:30:42.361Z,6.47
2022-12-08T20:33:10.759Z,5.18
2022-12-08T20:35:37.766Z,4.65
2022-12-08T20:38:04.794Z,5.22
2022-12-08T20:40:31.847Z,5.13
2022-12-08T20:42:58.984Z,4.45
2022-12-08T20:45:25.973Z,4.50
2022-12-08T20:47:53.184Z,4.90
2022-12-08T20:50:20.492Z,3.70
2022-12-08T20:52:47.874Z,3.60
2022-12-08T20:55:14.891Z,5.15
2022-12-08T20:57:42.096Z,5.85
2022-12-08T21:00:09.888Z,5.23
2022-12-08T21:02:43.227Z,5.45
2022-12-08T21:05:12.771Z,4.22
2022-12-08T21:07:39.904Z,5.57
2022-12-08T21:10:07.588Z,5.10
2022-12-08T21:12:35.276Z,4.00
2022-12-08T21:15:02.690Z,5.07
2022-12-08T21:17:32.329Z,4.80
2022-12-08T21:19:59.590Z,3.92
2022-12-08T21:22:26.712Z,3.80
2022-12-08T21:24:53.897Z,4.03
2022-12-08T21:27:21.322Z,5.25
2022-12-08T21:29:48.536Z,3.65
2022-12-08T21:32:15.754Z,4.95
2022-12-08T21:34:44.250Z,4.72
2022-12-08T21:37:11.430Z,5.35
2022-12-08T21:39:38.850Z,5.90
2022-12-08T21:42:27.933Z,4.07
2022-12-08T21:44:59.499Z,4.95
2022-12-08T21:47:26.630Z,3.13
2022-12-08T21:49:53.893Z,5.28
2022-12-08T21:52:21.166Z,4.43
2022-12-08T21:54:48.273Z,4.33
2022-12-08T21:57:15.320Z,5.20
2022-12-08T21:59:42.505Z,6.30
2022-12-08T22:02:17.973Z,3.90
2022-12-08T22:04:49.520Z,4.68
2022-12-08T22:07:17.432Z,4.20
2022-12-08T22:09:44.661Z,4.10
2022-12-08T22:12:12.338Z,4.80
2022-12-08T22:14:40.035Z,4.68
2022-12-08T22:17:07.998Z,3.38
2022-12-08T22:19:35.502Z,4.00
2022-12-08T22:22:02.779Z,4.07
2022-12-08T22:24:30.883Z,4.03
2022-12-08T22:26:58.345Z,3.87
2022-12-08T22:29:25.738Z,3.97
2022-12-08T22:31:52.989Z,3.87
2022-12-08T22:34:20.259Z,4.20
2022-12-08T22:36:49.022Z,4.03
2022-12-08T22:39:16.593Z,4.40
2022-12-08T22:41:43.843Z,3.30
2022-12-08T22:44:12.518Z,4.15
2022-12-08T22:46:39.914Z,3.25
2022-12-08T22:49:07.214Z,3.47
2022-12-08T22:51:36.650Z,4.57
2022-12-08T22:54:05.488Z,3.75
2022-12-08T22:56:32.681Z,3.10
2022-12-08T22:58:59.885Z,3.60
2022-12-08T23:01:29.071Z,3.72
2022-12-08T23:03:57.326Z,3.58
2022-12-08T23:06:25.477Z,3.00
2022-12-08T23:08:53.242Z,3.70
2022-12-08T23:11:20.993Z,3.63
2022-12-08T23:13:48.117Z,4.88
2022-12-08T23:16:15.649Z,3.58
2022-12-08T23:18:44.123Z,3.33
2022-12-08T23:21:12.706Z,3.85
2022-12-08T23:23:40.147Z,4.05
2022-12-08T23:26:15.571Z,3.83
2022-12-08T23:28:42.787Z,4.88
2022-12-08T23:31:10.048Z,3.10
2022-12-08T23:33:37.127Z,3.13
2022-12-08T23:36:04.464Z,3.33
2022-12-08T23:38:31.670Z,3.28
2022-12-08T23:41:02.954Z,3.30
2022-12-08T23:43:30.055Z,2.65
2022-12-08T23:45:57.434Z,3.05
2022-12-08T23:48:24.611Z,2.90
2022-12-08T23:50:51.718Z,2.72
2022-12-08T23:53:18.772Z,3.90
2022-12-08T23:55:46.068Z,3.40
2022-12-08T23:58:13.063Z,3.03
